createdAt,value
2023-03-02T00:00:16.279Z,33.15
2023-03-02T00:02:45.598Z,32.99
2023-03-02T00:05:15.728Z,33.51
2023-03-02T00:07:44.286Z,33.45
2023-03-02T00:10:13.244Z,33.41
2023-03-02T00:12:42.558Z,33.32
2023-03-02T00:15:12.173Z,33.43
2023-03-02T00:17:40.630Z,33.08
2023-03-02T00:20:11.749Z,33.37
2023-03-02T00:22:43.471Z,33.44
2023-03-02T00:25:13.512Z,33.31
2023-03-02T00:27:42.301Z,33.12
2023-03-02T00:30:13.147Z,33.17
2023-03-02T00:32:41.729Z,33.22
2023-03-02T00:35:11.341Z,33.01
2023-03-02T00:37:41.165Z,32.85
2023-03-02T00:40:11.971Z,33.02
2023-03-02T00:42:40.585Z,33.35
2023-03-02T00:45:10.915Z,33.37
2023-03-02T00:47:41.576Z,33.39
2023-03-02T00:50:12.141Z,33.04
2023-03-02T00:52:42.029Z,33.10
2023-03-02T00:55:11.393Z,33.23
2023-03-02T00:57:39.877Z,33.27
2023-03-02T01:00:10.603Z,33.19
2023-03-02T01:02:44.202Z,33.22
2023-03-02T01:05:13.108Z,32.95
2023-03-02T01:07:42.956Z,33.16
2023-03-02T01:10:13.074Z,33.13
2023-03-02T01:12:41.573Z,32.87
2023-03-02T01:15:11.816Z,33.28
2023-03-02T01:17:41.507Z,32.93
2023-03-02T01:20:12.369Z,33.25
2023-03-02T01:22:43.392Z,33.10
2023-03-02T01:25:13.206Z,33.13
2023-03-02T01:27:41.747Z,33.28
2023-03-02T01:30:12.371Z,32.87
2023-03-02T01:32:40.851Z,33.04
2023-03-02T01:35:10.612Z,33.25
2023-03-02T01:37:39.043Z,33.20
2023-03-02T01:40:13.782Z,32.95
2023-03-02T01:42:53.167Z,33.12
2023-03-02T01:45:53.429Z,33.26
2023-03-02T01:48:29.033Z,32.89
2023-03-02T01:50:58.630Z,32.87
2023-03-02T01:53:30.634Z,33.41
2023-03-02T01:56:01.978Z,33.26
2023-03-02T01:58:37.521Z,33.11
2023-03-02T02:01:15.644Z,33.31
2023-03-02T02:03:46.153Z,33.05
2023-03-02T02:06:20.644Z,33.18
2023-03-02T02:08:50.012Z,33.28
2023-03-02T02:11:20.183Z,33.42
2023-03-02T02:13:48.911Z,32.98
2023-03-02T02:16:17.462Z,33.24
2023-03-02T02:18:46.246Z,32.97
2023-03-02T02:21:15.580Z,33.12
2023-03-02T02:23:51.022Z,33.25
2023-03-02T02:26:25.664Z,33.24
2023-03-02T02:29:00.575Z,33.57
2023-03-02T02:31:37.102Z,33.29
2023-03-02T02:34:13.256Z,33.51
2023-03-02T02:36:47.710Z,33.29
2023-03-02T02:39:22.055Z,33.51
2023-03-02T02:41:56.567Z,33.49
2023-03-02T02:44:25.190Z,33.38
2023-03-02T02:46:53.720Z,33.54
2023-03-02T02:49:33.442Z,33.90
2023-03-02T02:52:02.977Z,33.91
2023-03-02T02:54:32.662Z,33.83
2023-03-02T02:57:05.217Z,34.20
2023-03-02T02:59:40.078Z,34.26
2023-03-02T03:02:12.193Z,34.18
2023-03-02T03:04:40.712Z,34.42
2023-03-02T03:07:14.146Z,34.33
2023-03-02T03:09:42.623Z,34.29
2023-03-02T03:12:18.156Z,34.63
2023-03-02T03:14:47.250Z,34.54
2023-03-02T03:17:15.769Z,34.52
2023-03-02T03:19:46.575Z,34.74
2023-03-02T03:22:18.956Z,34.78
2023-03-02T03:24:47.899Z,34.84
2023-03-02T03:27:18.615Z,34.83
2023-03-02T03:29:48.897Z,35.00
2023-03-02T03:32:18.709Z,34.93
2023-03-02T03:34:47.621Z,35.05
2023-03-02T03:37:20.819Z,35.22
2023-03-02T03:39:49.316Z,35.06
2023-03-02T03:42:19.253Z,35.35
2023-03-02T03:44:47.748Z,35.24
2023-03-02T03:47:16.223Z,35.36
2023-03-02T03:49:44.772Z,35.35
2023-03-02T03:52:13.248Z,35.47
2023-03-02T03:54:41.890Z,35.42
2023-03-02T03:57:12.201Z,35.56
2023-03-02T03:59:42.075Z,35.55
2023-03-02T04:02:11.093Z,35.63
2023-03-02T04:04:39.874Z,35.41
2023-03-02T04:07:08.302Z,35.70
2023-03-02T04:09:38.114Z,35.70
2023-03-02T04:12:08.699Z,35.85
2023-03-02T04:14:37.503Z,35.82
2023-03-02T04:17:08.237Z,36.12
2023-03-02T04:19:37.461Z,35.99
2023-03-02T04:22:06.014Z,36.07
2023-03-02T04:24:34.699Z,36.01
2023-03-02T04:27:03.175Z,36.17
2023-03-02T04:29:32.363Z,36.12
2023-03-02T04:32:00.906Z,36.09
2023-03-02T04:34:30.781Z,35.98
2023-03-02T04:36:59.524Z,36.20
2023-03-02T04:39:28.511Z,36.10
2023-03-02T04:41:57.146Z,36.33
2023-03-02T04:44:25.597Z,36.33
2023-03-02T04:46:54.111Z,36.39
2023-03-02T04:49:22.976Z,36.40
2023-03-02T04:51:52.825Z,36.22
2023-03-02T04:54:24.220Z,36.51
2023-03-02T04:56:53.645Z,36.48
2023-03-02T04:59:26.084Z,36.72
2023-03-02T05:01:55.775Z,36.69
2023-03-02T05:04:24.911Z,36.74
2023-03-02T05:06:54.803Z,36.60
2023-03-02T05:09:27.456Z,36.73
2023-03-02T05:11:56.318Z,37.33
2023-03-02T05:14:25.717Z,36.99
2023-03-02T05:16:54.693Z,37.28
2023-03-02T05:19:23.239Z,37.13
2023-03-02T05:21:51.720Z,37.39
2023-03-02T05:24:21.544Z,36.98
2023-03-02T05:26:50.025Z,37.01
2023-03-02T05:29:18.469Z,37.27
2023-03-02T05:31:48.518Z,37.52
2023-03-02T05:34:18.286Z,37.23
2023-03-02T05:36:47.520Z,37.21
2023-03-02T05:39:15.944Z,37.20
2023-03-02T05:41:45.854Z,37.45
2023-03-02T05:44:14.276Z,37.74
2023-03-02T05:46:42.777Z,37.47
2023-03-02T05:49:11.720Z,37.79
2023-03-02T05:51:40.144Z,37.86
2023-03-02T05:54:08.614Z,37.71
2023-03-02T05:56:37.101Z,37.95
2023-03-02T05:59:06.892Z,38.04
2023-03-02T06:01:36.877Z,38.15
2023-03-02T06:04:05.554Z,37.79
2023-03-02T06:06:34.385Z,37.84
2023-03-02T06:09:03.005Z,38.02
2023-03-02T06:11:31.514Z,37.98
2023-03-02T06:13:59.973Z,37.76
2023-03-02T06:16:31.900Z,37.57
2023-03-02T06:19:00.738Z,37.59
2023-03-02T06:21:29.309Z,37.55
2023-03-02T06:23:57.747Z,37.55
2023-03-02T06:26:26.219Z,37.42
2023-03-02T06:28:54.661Z,37.43
2023-03-02T06:31:23.398Z,37.55
2023-03-02T06:33:53.286Z,37.48
2023-03-02T06:36:21.845Z,37.11
2023-03-02T06:38:50.502Z,37.16
2023-03-02T06:41:19.081Z,37.19
2023-03-02T06:43:47.947Z,37.16
2023-03-02T06:46:16.508Z,37.12
2023-03-02T06:48:45.034Z,37.13
2023-03-02T06:51:14.965Z,37.09
2023-03-02T06:53:43.418Z,36.55
2023-03-02T06:56:12.256Z,36.91
2023-03-02T06:58:40.735Z,36.86
2023-03-02T07:01:09.314Z,36.75
2023-03-02T07:03:38.249Z,36.56
2023-03-02T07:06:07.965Z,36.55
2023-03-02T07:08:37.854Z,36.52
2023-03-02T07:11:08.041Z,36.49
2023-03-02T07:13:38.008Z,36.42
2023-03-02T07:16:09.904Z,36.74
2023-03-02T07:18:38.564Z,36.24
2023-03-02T07:21:07.578Z,36.25
2023-03-02T07:23:37.596Z,35.88
2023-03-02T07:26:08.669Z,35.71
2023-03-02T07:28:39.548Z,35.48
2023-03-02T07:31:09.089Z,35.48
2023-03-02T07:33:38.555Z,35.57
2023-03-02T07:36:08.391Z,35.39
2023-03-02T07:38:39.934Z,35.20
2023-03-02T07:41:09.427Z,35.24
2023-03-02T07:43:38.373Z,35.32
2023-03-02T07:46:07.677Z,34.91
2023-03-02T07:48:36.951Z,34.92
2023-03-02T07:51:07.375Z,35.01
2023-03-02T07:53:37.224Z,35.04
2023-03-02T07:56:10.794Z,35.06
2023-03-02T07:58:39.676Z,34.67
2023-03-02T08:01:08.959Z,34.46
2023-03-02T08:03:37.832Z,34.71
2023-03-02T08:06:08.755Z,34.34
2023-03-02T08:08:39.817Z,34.54
2023-03-02T08:11:10.741Z,34.44
2023-03-02T08:13:39.361Z,34.48
2023-03-02T08:16:10.449Z,34.07
2023-03-02T08:18:39.953Z,34.29
2023-03-02T08:21:14.745Z,34.29
2023-03-02T08:23:44.741Z,33.96
2023-03-02T08:26:17.302Z,33.76
2023-03-02T08:28:46.639Z,33.61
2023-03-02T08:31:15.956Z,33.50
2023-03-02T08:33:46.020Z,33.39
2023-03-02T08:36:17.879Z,32.52
2023-03-02T08:38:48.315Z,32.62
2023-03-02T08:41:20.243Z,33.01
2023-03-02T08:43:49.661Z,32.42
2023-03-02T08:46:20.029Z,32.72
2023-03-02T08:48:49.788Z,32.85
2023-03-02T08:51:21.691Z,32.57
2023-03-02T08:53:55.190Z,32.62
2023-03-02T08:56:26.591Z,31.12
2023-03-02T08:58:59.047Z,31.99
2023-03-02T09:01:30.825Z,31.94
2023-03-02T09:04:00.948Z,32.03
2023-03-02T09:06:32.055Z,31.88
2023-03-02T09:09:02.226Z,32.02
2023-03-02T09:11:30.970Z,31.93
2023-03-02T09:13:59.615Z,31.64
2023-03-02T09:16:28.394Z,31.91
2023-03-02T09:18:56.966Z,31.18
2023-03-02T09:21:25.633Z,31.47
2023-03-02T09:23:58.046Z,31.53
2023-03-02T09:26:28.332Z,31.49
2023-03-02T09:28:57.156Z,31.55
2023-03-02T09:31:26.933Z,31.30
2023-03-02T09:33:57.251Z,31.29
2023-03-02T09:36:27.946Z,31.06
2023-03-02T09:38:56.732Z,31.07
2023-03-02T09:42:19.554Z,31.38
2023-03-02T09:45:22.205Z,31.48
2023-03-02T09:48:05.456Z,31.45
2023-03-02T09:50:38.222Z,31.17
2023-03-02T09:53:40.480Z,31.20
2023-03-02T09:56:16.700Z,31.22
2023-03-02T09:58:56.168Z,31.23
2023-03-02T10:01:37.751Z,31.65
2023-03-02T10:04:19.816Z,31.33
2023-03-02T10:06:48.696Z,31.21
2023-03-02T10:09:17.167Z,31.15
2023-03-02T10:12:18.975Z,30.97
2023-03-02T10:14:58.323Z,31.16
2023-03-02T10:17:46.241Z,31.07
2023-03-02T10:20:25.348Z,31.14
2023-03-02T10:22:59.038Z,30.91
2023-03-02T10:25:39.225Z,31.11
2023-03-02T10:28:20.918Z,31.02
2023-03-02T10:30:56.937Z,30.98
2023-03-02T10:33:26.348Z,30.92
2023-03-02T10:35:55.396Z,30.80
2023-03-02T10:38:26.421Z,30.74
2023-03-02T10:41:01.216Z,30.81
2023-03-02T10:43:36.703Z,30.99
2023-03-02T10:46:09.436Z,30.88
2023-03-02T10:48:49.980Z,30.93
2023-03-02T10:51:30.130Z,30.98
2023-03-02T10:54:07.205Z,30.76
2023-03-02T10:56:36.263Z,30.49
2023-03-02T10:59:32.094Z,30.33
2023-03-02T11:02:03.320Z,29.82
2023-03-02T11:04:33.749Z,29.40
2023-03-02T11:07:12.255Z,29.09
2023-03-02T11:09:40.796Z,28.89
2023-03-02T11:12:17.111Z,28.55
2023-03-02T11:14:45.613Z,28.45
2023-03-02T11:17:35.265Z,27.94
2023-03-02T11:20:10.738Z,27.67
2023-03-02T11:22:48.598Z,27.43
2023-03-02T11:25:27.409Z,26.70
2023-03-02T11:28:12.187Z,26.69
2023-03-02T11:30:48.695Z,26.45
2023-03-02T11:33:25.568Z,25.83
2023-03-02T11:36:00.359Z,25.62
2023-03-02T11:38:33.797Z,25.41
2023-03-02T11:41:07.702Z,24.81
2023-03-02T11:43:36.190Z,24.61
2023-03-02T11:46:13.830Z,24.26
2023-03-02T11:48:51.475Z,23.87
2023-03-02T11:51:23.270Z,23.64
2023-03-02T11:53:57.529Z,23.08
2023-03-02T11:56:31.661Z,22.93
2023-03-02T11:59:04.792Z,22.62
2023-03-02T12:01:38.110Z,22.22
2023-03-02T12:04:27.799Z,22.54
2023-03-02T12:06:56.998Z,21.57
2023-03-02T12:09:37.246Z,21.92
2023-03-02T12:12:35.294Z,21.71
2023-03-02T12:15:04.504Z,21.24
2023-03-02T12:17:36.706Z,21.26
2023-03-02T12:20:30.825Z,21.29
2023-03-02T12:23:11.625Z,20.34
2023-03-02T12:25:49.673Z,20.14
2023-03-02T12:28:32.318Z,20.18
2023-03-02T12:31:11.073Z,19.83
2023-03-02T12:33:50.544Z,19.36
2023-03-02T12:36:28.348Z,19.16
2023-03-02T12:39:18.846Z,18.69
2023-03-02T12:42:40.423Z,18.54
2023-03-02T12:45:33.178Z,14.84
2023-03-02T12:48:07.525Z,16.00
2023-03-02T12:50:40.919Z,16.19
2023-03-02T12:53:20.938Z,13.38
2023-03-02T12:55:49.448Z,14.73
2023-03-02T12:58:22.138Z,15.34
2023-03-02T13:00:56.836Z,15.24
2023-03-02T13:03:27.178Z,15.31
2023-03-02T13:06:03.969Z,15.43
2023-03-02T13:08:34.973Z,15.15
2023-03-02T13:11:04.606Z,15.02
2023-03-02T13:13:40.698Z,14.68
2023-03-02T13:16:22.772Z,14.50
2023-03-02T13:18:55.415Z,14.19
2023-03-02T13:21:29.489Z,14.26
2023-03-02T13:24:00.257Z,14.10
2023-03-02T13:26:32.383Z,13.73
2023-03-02T13:29:07.234Z,13.58
2023-03-02T13:31:36.571Z,13.36
2023-03-02T13:34:05.106Z,13.67
2023-03-02T13:36:39.232Z,13.60
2023-03-02T13:39:20.864Z,13.21
2023-03-02T13:41:56.407Z,13.23
2023-03-02T13:44:30.498Z,13.07
2023-03-02T13:47:00.164Z,12.42
2023-03-02T13:49:31.344Z,12.94
2023-03-02T13:52:07.766Z,12.41
2023-03-02T13:54:38.927Z,12.47
2023-03-02T13:57:08.197Z,12.96
2023-03-02T13:59:37.533Z,13.37
2023-03-02T14:02:23.501Z,13.86
2023-03-02T14:04:52.394Z,14.59
2023-03-02T14:07:21.910Z,14.90
2023-03-02T14:09:51.737Z,15.10
2023-03-02T14:12:27.916Z,15.45
2023-03-02T14:14:59.875Z,15.93
2023-03-02T14:17:28.847Z,16.14
2023-03-02T14:19:57.946Z,16.34
2023-03-02T14:22:29.732Z,16.86
2023-03-02T14:24:59.611Z,17.18
2023-03-02T14:27:31.874Z,17.08
2023-03-02T14:30:01.359Z,17.61
2023-03-02T14:32:30.023Z,17.35
2023-03-02T14:34:59.159Z,17.65
2023-03-02T14:37:30.297Z,18.08
2023-03-02T14:40:00.661Z,17.99
2023-03-02T14:42:29.417Z,18.30
2023-03-02T14:44:59.722Z,18.36
2023-03-02T14:47:28.361Z,18.61
2023-03-02T14:49:56.880Z,18.92
2023-03-02T14:52:31.742Z,19.09
2023-03-02T14:55:07.232Z,19.46
2023-03-02T14:57:39.343Z,19.42
2023-03-02T15:00:14.068Z,19.60
2023-03-02T15:02:42.880Z,19.73
2023-03-02T15:05:11.661Z,19.82
2023-03-02T15:07:41.007Z,19.92
2023-03-02T15:10:16.258Z,20.12
2023-03-02T15:12:44.757Z,20.18
2023-03-02T15:15:14.141Z,20.29
2023-03-02T15:17:43.055Z,20.54
2023-03-02T15:20:17.211Z,20.64
2023-03-02T15:22:45.845Z,20.77
2023-03-02T15:25:16.156Z,20.69
2023-03-02T15:27:44.630Z,20.88
2023-03-02T15:30:14.522Z,21.05
2023-03-02T15:32:43.153Z,21.15
2023-03-02T15:35:12.620Z,21.25
2023-03-02T15:37:41.305Z,21.14
2023-03-02T15:40:11.682Z,21.22
2023-03-02T15:42:41.550Z,21.34
2023-03-02T15:45:11.033Z,21.38
2023-03-02T15:47:39.506Z,21.26
2023-03-02T15:50:09.276Z,21.62
2023-03-02T15:52:37.769Z,21.70
2023-03-02T15:55:07.110Z,21.55
2023-03-02T15:57:40.451Z,21.67
2023-03-02T16:00:13.624Z,21.67
2023-03-02T16:02:42.241Z,21.76
2023-03-02T16:05:11.378Z,21.68
2023-03-02T16:07:40.072Z,21.80
2023-03-02T16:10:15.298Z,21.94
2023-03-02T16:12:45.470Z,21.91
2023-03-02T16:15:14.110Z,21.82
2023-03-02T16:17:43.992Z,22.32
2023-03-02T16:20:14.157Z,22.03
2023-03-02T16:22:42.641Z,22.17
2023-03-02T16:25:11.353Z,22.20
2023-03-02T16:27:39.865Z,22.08
2023-03-02T16:30:12.358Z,22.27
2023-03-02T16:32:41.312Z,22.16
2023-03-02T16:35:12.262Z,22.19
2023-03-02T16:37:41.040Z,22.35
2023-03-02T16:40:12.220Z,22.45
2023-03-02T16:42:41.831Z,22.65
2023-03-02T16:45:13.092Z,22.52
2023-03-02T16:47:41.864Z,22.58
2023-03-02T16:50:12.279Z,22.54
2023-03-02T16:52:41.963Z,22.80
2023-03-02T16:55:16.879Z,22.88
2023-03-02T16:57:47.996Z,22.84
2023-03-02T17:00:20.700Z,22.82
2023-03-02T17:02:51.007Z,23.07
2023-03-02T17:05:22.338Z,23.04
2023-03-02T17:07:50.944Z,23.00
2023-03-02T17:10:23.717Z,23.23
2023-03-02T17:12:53.451Z,23.08
2023-03-02T17:15:23.785Z,23.41
2023-03-02T17:17:52.916Z,23.32
2023-03-02T17:20:23.490Z,23.40
2023-03-02T17:22:52.583Z,23.44
2023-03-02T17:25:21.519Z,23.26
2023-03-02T17:27:53.522Z,23.46
2023-03-02T17:30:24.875Z,23.53
2023-03-02T17:32:54.224Z,23.59
2023-03-02T17:35:23.625Z,23.50
2023-03-02T17:37:52.306Z,23.60
2023-03-02T17:40:21.814Z,23.53
2023-03-02T17:42:54.543Z,23.58
2023-03-02T17:45:29.424Z,23.65
2023-03-02T17:48:01.687Z,23.73
2023-03-02T17:50:32.127Z,23.75
2023-03-02T17:53:03.118Z,23.69
2023-03-02T17:55:33.374Z,23.95
2023-03-02T17:58:08.008Z,23.88
2023-03-02T18:00:40.717Z,24.02
2023-03-02T18:03:10.902Z,24.09
2023-03-02T18:05:41.201Z,23.92
2023-03-02T18:08:10.956Z,24.05
2023-03-02T18:10:47.834Z,24.07
2023-03-02T18:13:17.333Z,24.19
2023-03-02T18:15:48.556Z,24.45
2023-03-02T18:18:18.106Z,24.39
2023-03-02T18:20:48.175Z,24.40
2023-03-02T18:23:19.637Z,24.62
2023-03-02T18:25:49.994Z,24.57
2023-03-02T18:28:19.237Z,24.71
2023-03-02T18:30:50.426Z,24.65
2023-03-02T18:33:20.295Z,24.86
2023-03-02T18:35:50.398Z,24.75
2023-03-02T18:38:20.774Z,25.10
2023-03-02T18:40:51.123Z,25.03
2023-03-02T18:43:20.827Z,25.10
2023-03-02T18:45:51.566Z,25.18
2023-03-02T18:48:21.497Z,25.04
2023-03-02T18:50:50.798Z,25.11
2023-03-02T18:53:20.214Z,25.30
2023-03-02T18:55:50.726Z,25.20
2023-03-02T18:58:23.913Z,25.40
2023-03-02T19:00:58.370Z,25.47
2023-03-02T19:03:28.791Z,25.64
2023-03-02T19:05:59.603Z,25.67
2023-03-02T19:08:29.977Z,25.89
2023-03-02T19:10:59.969Z,26.47
2023-03-02T19:13:30.984Z,26.37
2023-03-02T19:16:03.775Z,26.54
2023-03-02T19:18:34.802Z,26.69
2023-03-02T19:21:06.238Z,26.52
2023-03-02T19:23:37.909Z,26.84
2023-03-02T19:26:09.210Z,27.05
2023-03-02T19:28:40.440Z,27.57
2023-03-02T19:31:13.399Z,27.80
2023-03-02T19:33:47.395Z,27.63
2023-03-02T19:36:18.399Z,27.75
2023-03-02T19:38:49.538Z,27.83
2023-03-02T19:41:23.092Z,27.85
2023-03-02T19:43:53.490Z,28.08
2023-03-02T19:46:25.346Z,28.41
2023-03-02T19:48:56.594Z,28.49
2023-03-02T19:51:28.424Z,28.39
2023-03-02T19:54:04.362Z,28.82
2023-03-02T19:56:35.733Z,28.44
2023-03-02T19:59:06.635Z,28.78
2023-03-02T20:01:40.017Z,28.82
2023-03-02T20:04:09.833Z,28.57
2023-03-02T20:06:40.414Z,28.70
2023-03-02T20:09:12.139Z,29.22
2023-03-02T20:11:43.012Z,29.21
2023-03-02T20:14:27.656Z,29.42
2023-03-02T20:17:06.931Z,29.14
2023-03-02T20:19:39.512Z,29.30
2023-03-02T20:22:10.521Z,29.34
2023-03-02T20:24:41.449Z,29.35
2023-03-02T20:27:13.691Z,29.13
2023-03-02T20:29:45.914Z,29.74
2023-03-02T20:32:18.993Z,30.04
2023-03-02T20:34:49.408Z,29.68
2023-03-02T20:37:20.733Z,29.67
2023-03-02T20:39:52.233Z,29.71
2023-03-02T20:42:23.441Z,29.68
2023-03-02T20:44:53.946Z,29.56
2023-03-02T20:47:25.886Z,29.49
2023-03-02T20:49:56.519Z,29.73
2023-03-02T20:52:26.381Z,29.79
2023-03-02T20:54:57.374Z,30.10
2023-03-02T20:57:27.897Z,30.06
2023-03-02T20:59:58.194Z,30.03
2023-03-02T21:02:30.635Z,29.94
2023-03-02T21:05:00.695Z,30.27
2023-03-02T21:07:31.003Z,30.03
2023-03-02T21:10:01.002Z,30.25
2023-03-02T21:12:34.265Z,30.22
2023-03-02T21:15:04.308Z,30.12
2023-03-02T21:17:35.968Z,30.41
2023-03-02T21:20:07.124Z,29.95
2023-03-02T21:22:37.818Z,30.22
2023-03-02T21:25:09.762Z,30.54
2023-03-02T21:27:41.270Z,30.04
2023-03-02T21:30:15.744Z,30.33
2023-03-02T21:32:45.899Z,30.58
2023-03-02T21:35:17.434Z,30.75
2023-03-02T21:37:46.941Z,30.52
2023-03-02T21:40:19.562Z,31.11
2023-03-02T21:42:48.256Z,30.71
2023-03-02T21:45:18.590Z,31.04
2023-03-02T21:47:48.741Z,30.94
2023-03-02T21:50:23.013Z,30.95
2023-03-02T21:52:51.615Z,30.94
2023-03-02T21:55:20.640Z,30.94
2023-03-02T21:57:49.525Z,31.43
2023-03-02T22:00:23.369Z,31.06
2023-03-02T22:02:53.721Z,31.44
2023-03-02T22:05:22.517Z,31.31
2023-03-02T22:07:51.012Z,31.60
2023-03-02T22:10:30.369Z,31.39
2023-03-02T22:13:22.772Z,31.24
2023-03-02T22:15:59.089Z,31.64
2023-03-02T22:18:29.510Z,31.30
2023-03-02T22:20:58.026Z,31.56
2023-03-02T22:23:28.308Z,31.50
2023-03-02T22:26:10.244Z,31.54
2023-03-02T22:28:41.066Z,31.78
2023-03-02T22:31:20.484Z,31.48
2023-03-02T22:33:50.908Z,31.79
2023-03-02T22:36:23.963Z,31.79
2023-03-02T22:38:52.731Z,31.58
2023-03-02T22:41:21.956Z,32.13
2023-03-02T22:43:52.992Z,31.71
2023-03-02T22:46:22.920Z,32.05
2023-03-02T22:48:54.556Z,31.72
2023-03-02T22:51:26.207Z,31.65
2023-03-02T22:53:56.869Z,32.14
2023-03-02T22:56:32.471Z,31.80
2023-03-02T22:59:07.577Z,31.97
2023-03-02T23:01:42.206Z,31.74
2023-03-02T23:04:22.135Z,32.00
2023-03-02T23:06:53.208Z,31.73
2023-03-02T23:09:25.510Z,31.90
2023-03-02T23:11:57.652Z,31.80
2023-03-02T23:14:29.993Z,31.79
2023-03-02T23:17:01.643Z,31.87
2023-03-02T23:19:32.698Z,31.94
2023-03-02T23:22:01.413Z,32.15
2023-03-02T23:24:29.790Z,32.02
2023-03-02T23:26:58.544Z,32.13
2023-03-02T23:29:26.945Z,32.41
2023-03-02T23:31:55.699Z,32.22
2023-03-02T23:34:24.558Z,32.47
2023-03-02T23:36:58.218Z,32.41
2023-03-02T23:39:27.870Z,32.07
2023-03-02T23:41:56.506Z,32.61
2023-03-02T23:44:25.107Z,32.52
2023-03-02T23:46:53.535Z,32.26
2023-03-02T23:49:21.943Z,32.70
2023-03-02T23:51:50.340Z,32.36
2023-03-02T23:54:20.096Z,32.71
2023-03-02T23:56:48.496Z,32.37
2023-03-02T23:59:16.903Z,32.48
